createdAt,value
2022-08-08T00:02:02.967Z,99.90
2022-08-08T00:04:49.175Z,99.90
2022-08-08T00:07:35.019Z,99.90
2022-08-08T00:10:35.608Z,99.90
2022-08-08T00:13:20.860Z,99.90
2022-08-08T00:16:22.518Z,99.90
2022-08-08T00:19:29.620Z,99.90
2022-08-08T00:22:16.623Z,99.90
2022-08-08T00:24:49.747Z,99.90
2022-08-08T00:27:21.217Z,99.90
2022-08-08T00:30:01.708Z,99.90
2022-08-08T00:32:44.929Z,99.90
2022-08-08T00:35:27.362Z,99.90
2022-08-08T00:38:04.964Z,99.90
2022-08-08T00:41:10.327Z,99.90
2022-08-08T00:44:05.150Z,99.90
2022-08-08T00:46:57.846Z,99.90
2022-08-08T00:49:27.063Z,99.90
2022-08-08T00:52:40.096Z,99.90
2022-08-08T00:55:17.756Z,99.90
2022-08-08T00:58:23.080Z,99.90
2022-08-08T01:00:58.347Z,99.90
2022-08-08T01:04:20.635Z,99.90
2022-08-08T01:07:55.845Z,99.90
2022-08-08T01:10:25.460Z,99.90
2022-08-08T01:13:15.033Z,99.90
2022-08-08T01:16:20.982Z,99.90
2022-08-08T01:19:51.991Z,99.90
2022-08-08T01:22:35.428Z,99.90
2022-08-08T01:25:26.158Z,99.90
2022-08-08T01:28:29.507Z,99.90
2022-08-08T01:43:39.180Z,99.90
2022-08-08T01:46:18.845Z,99.90
2022-08-08T01:49:37.498Z,99.90
2022-08-08T01:52:55.221Z,99.90
2022-08-08T01:56:26.018Z,99.90
2022-08-08T01:58:38.522Z,99.90
2022-08-08T02:01:21.424Z,99.90
2022-08-08T02:04:04.271Z,99.90
2022-08-08T02:06:52.475Z,99.90
2022-08-08T02:10:04.394Z,99.90
2022-08-08T02:12:51.797Z,99.90
2022-08-08T02:15:41.395Z,99.90
2022-08-08T02:18:19.235Z,99.90
2022-08-08T02:21:31.806Z,99.90
2022-08-08T02:24:25.038Z,99.90
2022-08-08T02:26:58.140Z,99.90
2022-08-08T02:30:04.960Z,99.90
2022-08-08T02:32:56.400Z,99.90
2022-08-08T02:36:02.506Z,99.90
2022-08-08T02:38:49.155Z,99.90
2022-08-08T02:42:03.505Z,99.90
2022-08-08T02:44:57.059Z,99.90
2022-08-08T02:47:28.245Z,99.90
2022-08-08T02:50:32.834Z,99.90
2022-08-08T02:53:18.966Z,99.90
2022-08-08T02:56:15.372Z,99.90
2022-08-08T02:59:57.427Z,99.90
2022-08-08T03:02:50.522Z,99.90
2022-08-08T03:05:46.359Z,99.90
2022-08-08T03:08:22.875Z,99.90
2022-08-08T03:11:14.039Z,99.90
2022-08-08T03:15:57.990Z,99.90
2022-08-08T03:17:08.568Z,99.90
2022-08-08T03:19:51.379Z,99.90
2022-08-08T03:22:38.563Z,99.90
2022-08-08T03:25:14.586Z,99.90
2022-08-08T03:27:56.335Z,99.90
2022-08-08T03:30:25.239Z,99.90
2022-08-08T03:33:56.547Z,99.90
2022-08-08T03:36:02.761Z,99.90
2022-08-08T03:38:56.737Z,99.90
2022-08-08T03:42:12.466Z,99.90
2022-08-08T03:44:06.297Z,99.90
2022-08-08T03:46:50.656Z,99.90
2022-08-08T03:49:57.388Z,99.90
2022-08-08T03:52:15.366Z,99.90
2022-08-08T03:55:02.280Z,99.90
2022-08-08T03:58:32.864Z,99.90
2022-08-08T04:00:26.068Z,99.90
2022-08-08T04:03:03.401Z,99.90
2022-08-08T04:05:37.473Z,99.90
2022-08-08T04:08:33.550Z,99.90
2022-08-08T04:11:10.722Z,99.90
2022-08-08T04:14:03.207Z,99.90
2022-08-08T04:16:38.314Z,99.90
2022-08-08T04:19:23.361Z,99.90
2022-08-08T04:21:51.716Z,99.90
2022-08-08T04:24:29.426Z,99.90
2022-08-08T04:26:59.594Z,99.90
2022-08-08T04:29:33.186Z,99.90
2022-08-08T04:32:01.052Z,99.90
2022-08-08T04:34:32.160Z,99.90
2022-08-08T04:37:12.029Z,99.90
2022-08-08T04:40:03.958Z,99.90
2022-08-08T04:42:29.082Z,99.90
2022-08-08T04:44:58.252Z,99.90
2022-08-08T04:47:26.609Z,99.90
2022-08-08T04:49:59.127Z,99.90
2022-08-08T04:52:33.792Z,99.90
2022-08-08T04:55:04.199Z,99.90
2022-08-08T04:57:34.429Z,99.90
2022-08-08T05:00:05.203Z,99.90
2022-08-08T05:02:33.495Z,99.90
2022-08-08T05:05:01.247Z,99.20
2022-08-08T05:07:38.069Z,99.40
2022-08-08T05:10:12.876Z,79.40
2022-08-08T05:12:42.963Z,74.70
2022-08-08T05:16:48.116Z,50.90
2022-08-08T05:18:15.535Z,51.10
2022-08-08T05:20:49.897Z,49.90
2022-08-08T05:23:19.477Z,28.80
2022-08-08T05:25:49.601Z,48.70
2022-08-08T05:28:48.401Z,14.10
2022-08-08T05:31:19.144Z,1.00
2022-08-08T05:33:52.223Z,1.00
2022-08-08T05:36:27.999Z,1.00
2022-08-08T05:38:58.576Z,1.00
2022-08-08T05:41:28.032Z,1.00
2022-08-08T05:44:05.776Z,1.00
2022-08-08T05:46:38.092Z,1.00
2022-08-08T05:49:11.019Z,1.00
2022-08-08T05:51:48.203Z,1.00
2022-08-08T05:54:28.774Z,1.00
2022-08-08T05:57:15.143Z,1.00
2022-08-08T05:59:58.952Z,1.00
2022-08-08T06:02:51.690Z,1.00
2022-08-08T06:05:33.772Z,1.00
2022-08-08T06:08:09.898Z,1.00
2022-08-08T06:10:49.389Z,1.00
2022-08-08T06:13:21.999Z,1.00
2022-08-08T06:15:55.060Z,1.00
2022-08-08T06:18:25.595Z,1.00
2022-08-08T06:20:56.489Z,1.00
2022-08-08T06:24:02.583Z,1.00
2022-08-08T06:26:38.953Z,1.00
2022-08-08T06:29:26.193Z,99.90
2022-08-08T06:32:11.533Z,99.90
2022-08-08T06:35:02.864Z,99.90
2022-08-08T06:37:37.996Z,99.90
2022-08-08T06:40:12.763Z,99.90
2022-08-08T06:43:03.338Z,93.00
2022-08-08T06:45:34.168Z,99.90
2022-08-08T06:48:04.346Z,99.90
2022-08-08T06:50:38.359Z,99.90
2022-08-08T06:53:13.921Z,1.00
2022-08-08T06:55:47.178Z,99.90
2022-08-08T06:58:20.929Z,1.00
2022-08-08T07:00:50.974Z,12.20
2022-08-08T07:03:52.743Z,99.90
2022-08-08T07:06:27.001Z,1.00
2022-08-08T07:09:02.801Z,99.90
2022-08-08T07:11:46.197Z,99.90
2022-08-08T07:14:26.913Z,1.00
2022-08-08T07:17:02.700Z,99.90
2022-08-08T07:19:48.301Z,1.00
2022-08-08T07:22:27.889Z,99.90
2022-08-08T07:25:01.775Z,99.90
2022-08-08T07:27:47.341Z,1.00
2022-08-08T07:30:27.752Z,99.90
2022-08-08T07:32:59.658Z,99.90
2022-08-08T07:35:30.876Z,1.00
2022-08-08T07:38:09.864Z,99.90
2022-08-08T07:40:46.806Z,99.90
2022-08-08T07:43:15.142Z,99.90
2022-08-08T07:46:05.966Z,99.90
2022-08-08T07:48:32.371Z,1.00
2022-08-08T07:51:04.391Z,1.00
2022-08-08T07:54:02.854Z,99.90
2022-08-08T07:56:37.411Z,1.00
2022-08-08T07:59:14.783Z,1.00
2022-08-08T08:02:34.863Z,99.90
2022-08-08T08:05:00.985Z,99.90
2022-08-08T08:07:38.716Z,99.90
2022-08-08T08:10:08.754Z,84.40
2022-08-08T08:12:53.194Z,1.00
2022-08-08T08:15:26.525Z,1.00
2022-08-08T08:18:03.778Z,1.00
2022-08-08T08:20:32.443Z,1.00
2022-08-08T08:22:59.910Z,1.00
2022-08-08T08:25:43.034Z,99.90
2022-08-08T08:28:21.313Z,1.00
2022-08-08T08:30:53.105Z,99.90
2022-08-08T08:33:21.043Z,99.90
2022-08-08T08:36:19.993Z,99.90
2022-08-08T08:38:37.913Z,99.90
2022-08-08T08:41:19.982Z,99.90
2022-08-08T08:43:50.840Z,99.90
2022-08-08T08:46:20.372Z,99.90
2022-08-08T08:48:55.237Z,99.90
2022-08-08T08:51:27.104Z,99.90
2022-08-08T08:54:00.031Z,99.90
2022-08-08T08:56:29.456Z,99.90
2022-08-08T08:58:58.441Z,99.90
2022-08-08T09:01:33.735Z,99.90
2022-08-08T09:04:10.042Z,99.90
2022-08-08T09:06:59.473Z,99.90
2022-08-08T09:09:39.989Z,99.90
2022-08-08T09:12:19.755Z,98.20
2022-08-08T09:14:51.674Z,81.50
2022-08-08T09:17:31.666Z,93.70
2022-08-08T09:21:56.001Z,64.90
2022-08-08T09:22:58.643Z,7.90
2022-08-08T09:25:35.507Z,1.00
2022-08-08T09:28:35.767Z,1.00
2022-08-08T09:31:12.764Z,1.00
2022-08-08T09:34:15.488Z,1.00
2022-08-08T09:36:35.925Z,1.00
2022-08-08T09:39:15.683Z,1.00
2022-08-08T09:42:20.058Z,1.00
2022-08-08T09:45:08.208Z,1.00
2022-08-08T09:48:10.075Z,1.00
2022-08-08T09:50:34.470Z,1.00
2022-08-08T09:53:23.760Z,1.00
2022-08-08T09:56:05.820Z,1.00
2022-08-08T09:58:46.346Z,1.00
2022-08-08T10:02:01.962Z,1.00
2022-08-08T10:04:38.310Z,1.00
2022-08-08T10:07:07.535Z,1.00
2022-08-08T10:09:58.636Z,1.00
2022-08-08T10:12:52.882Z,1.00
2022-08-08T10:15:27.474Z,1.00
2022-08-08T10:18:06.700Z,1.00
2022-08-08T10:20:51.136Z,1.00
2022-08-08T10:23:59.038Z,1.00
2022-08-08T10:26:56.651Z,1.00
2022-08-08T10:29:43.804Z,1.00
2022-08-08T10:32:35.860Z,1.00
2022-08-08T10:35:11.792Z,1.00
2022-08-08T10:37:57.645Z,1.00
2022-08-08T10:40:32.178Z,1.00
2022-08-08T10:43:05.027Z,1.00
2022-08-08T10:45:56.644Z,1.00
2022-08-08T10:48:56.850Z,99.90
2022-08-08T10:51:24.106Z,99.90
2022-08-08T10:53:57.415Z,99.90
2022-08-08T10:56:32.244Z,99.90
2022-08-08T10:59:10.419Z,99.90
2022-08-08T11:01:54.744Z,99.90
2022-08-08T11:04:38.761Z,99.90
2022-08-08T11:07:07.547Z,99.90
2022-08-08T11:09:51.451Z,99.90
2022-08-08T11:12:18.997Z,99.90
2022-08-08T11:15:04.582Z,99.90
2022-08-08T11:17:59.659Z,99.90
2022-08-08T11:20:29.907Z,99.90
2022-08-08T11:22:59.115Z,99.90
2022-08-08T11:25:52.639Z,99.90
2022-08-08T11:28:20.787Z,99.90
2022-08-08T11:30:50.081Z,99.90
2022-08-08T11:33:53.578Z,99.90
2022-08-08T11:36:15.247Z,99.90
2022-08-08T11:38:54.080Z,99.90
2022-08-08T11:41:27.916Z,99.90
2022-08-08T11:44:01.395Z,99.90
2022-08-08T11:46:31.698Z,99.90
2022-08-08T11:49:08.715Z,99.90
2022-08-08T11:51:39.879Z,99.90
2022-08-08T11:54:32.040Z,99.90
2022-08-08T11:57:13.857Z,99.90
2022-08-08T12:00:00.881Z,99.90
2022-08-08T12:02:33.508Z,99.90
2022-08-08T12:05:12.316Z,99.90
2022-08-08T12:07:52.795Z,99.90
2022-08-08T12:10:23.525Z,99.90
2022-08-08T12:13:10.958Z,99.90
2022-08-08T12:15:46.811Z,99.90
2022-08-08T12:18:16.026Z,99.90
2022-08-08T12:20:46.013Z,99.90
2022-08-08T12:23:30.142Z,99.90
2022-08-08T12:26:17.216Z,99.90
2022-08-08T12:28:57.093Z,99.90
2022-08-08T12:31:39.419Z,99.90
2022-08-08T12:34:56.327Z,99.90
2022-08-08T12:37:41.541Z,99.90
2022-08-08T12:40:22.677Z,99.90
2022-08-08T12:42:52.951Z,99.90
2022-08-08T12:45:59.711Z,99.90
2022-08-08T12:48:37.485Z,99.90
2022-08-08T12:51:11.232Z,99.90
2022-08-08T12:53:59.084Z,99.90
2022-08-08T12:56:35.161Z,99.90
2022-08-08T12:59:14.461Z,99.90
2022-08-08T13:01:49.397Z,99.90
2022-08-08T13:04:24.572Z,99.90
2022-08-08T13:06:56.591Z,99.90
2022-08-08T13:09:43.058Z,99.60
2022-08-08T13:12:34.974Z,99.40
2022-08-08T13:15:06.783Z,99.40
2022-08-08T13:17:54.239Z,97.70
2022-08-08T13:20:27.326Z,97.50
2022-08-08T13:23:20.152Z,95.20
2022-08-08T13:25:48.910Z,95.30
2022-08-08T13:28:29.057Z,93.80
2022-08-08T13:31:04.702Z,94.30
2022-08-08T13:33:42.502Z,94.70
2022-08-08T13:36:11.174Z,92.70
2022-08-08T13:38:39.947Z,91.90
2022-08-08T13:41:16.204Z,90.10
2022-08-08T13:43:50.667Z,89.70
2022-08-08T13:46:27.116Z,88.30
2022-08-08T13:50:33.429Z,87.50
2022-08-08T13:51:59.401Z,88.20
2022-08-08T13:54:35.014Z,89.20
2022-08-08T13:57:15.840Z,90.30
2022-08-08T13:59:49.027Z,89.10
2022-08-08T14:02:20.405Z,89.10
2022-08-08T14:05:05.005Z,89.90
2022-08-08T14:07:42.274Z,88.60
2022-08-08T14:10:33.569Z,88.90
2022-08-08T14:13:30.422Z,86.90
2022-08-08T14:16:15.901Z,86.20
2022-08-08T14:19:03.059Z,85.70
2022-08-08T14:21:48.937Z,83.30
2022-08-08T14:24:34.155Z,83.90
2022-08-08T14:27:07.384Z,86.30
2022-08-08T14:29:40.319Z,87.20
2022-08-08T14:32:11.707Z,90.00
2022-08-08T14:34:45.379Z,87.90
2022-08-08T14:37:17.924Z,86.40
2022-08-08T14:39:55.184Z,88.40
2022-08-08T14:42:55.414Z,86.90
2022-08-08T14:45:33.508Z,84.70
2022-08-08T14:48:16.248Z,84.10
2022-08-08T14:50:47.174Z,84.50
2022-08-08T14:53:15.444Z,84.30
2022-08-08T14:55:43.666Z,94.50
2022-08-08T14:58:19.630Z,76.00
2022-08-08T15:00:48.891Z,90.00
2022-08-08T15:03:17.481Z,81.00
2022-08-08T15:05:54.006Z,77.80
2022-08-08T15:08:34.200Z,78.90
2022-08-08T15:11:11.671Z,80.10
2022-08-08T15:14:00.736Z,81.50
2022-08-08T15:16:29.771Z,78.80
2022-08-08T15:19:02.987Z,78.30
2022-08-08T15:21:30.787Z,78.40
2022-08-08T15:23:58.567Z,77.60
2022-08-08T15:26:28.698Z,79.60
2022-08-08T15:28:57.529Z,80.70
2022-08-08T15:31:56.236Z,81.00
2022-08-08T15:34:29.696Z,81.70
2022-08-08T15:37:01.907Z,79.70
2022-08-08T15:39:38.053Z,80.30
2022-08-08T15:42:10.307Z,81.50
2022-08-08T15:44:42.267Z,84.30
2022-08-08T15:47:16.237Z,85.10
2022-08-08T15:49:48.479Z,88.10
2022-08-08T15:52:18.105Z,87.90
2022-08-08T15:54:51.699Z,88.40
2022-08-08T15:57:21.125Z,90.40
2022-08-08T16:00:12.134Z,89.20
2022-08-08T16:02:43.700Z,90.10
2022-08-08T16:05:13.808Z,89.70
2022-08-08T16:07:51.450Z,90.00
2022-08-08T16:13:20.431Z,90.80
2022-08-08T16:13:30.119Z,91.50
2022-08-08T16:16:09.591Z,91.80
2022-08-08T16:18:56.997Z,92.20
2022-08-08T16:21:31.785Z,93.30
2022-08-08T16:24:10.158Z,94.40
2022-08-08T16:26:40.008Z,95.10
2022-08-08T16:29:15.485Z,95.40
2022-08-08T16:31:49.172Z,96.30
2022-08-08T16:34:21.348Z,97.70
2022-08-08T16:36:50.334Z,98.60
2022-08-08T16:39:28.119Z,99.40
2022-08-08T16:42:06.652Z,99.90
2022-08-08T16:44:41.415Z,99.90
2022-08-08T16:47:41.365Z,99.90
2022-08-08T16:50:15.078Z,99.90
2022-08-08T16:55:05.270Z,99.90
2022-08-08T16:55:53.884Z,99.90
2022-08-08T16:58:26.450Z,99.90
2022-08-08T17:00:55.616Z,99.90
2022-08-08T17:04:00.044Z,99.90
2022-08-08T17:06:37.488Z,99.90
2022-08-08T17:09:02.470Z,99.90
2022-08-08T17:11:39.550Z,99.90
2022-08-08T17:14:18.125Z,99.90
2022-08-08T17:16:57.705Z,99.90
2022-08-08T17:19:37.318Z,99.90
2022-08-08T17:22:09.364Z,99.90
2022-08-08T17:24:36.984Z,99.90
2022-08-08T17:27:05.831Z,99.90
2022-08-08T17:29:36.440Z,99.90
2022-08-08T17:32:10.922Z,99.90
2022-08-08T17:35:52.201Z,99.90
2022-08-08T17:37:32.764Z,99.90
2022-08-08T17:40:06.027Z,99.90
2022-08-08T17:42:41.730Z,99.90
2022-08-08T17:45:22.421Z,99.90
2022-08-08T17:47:51.790Z,99.90
2022-08-08T17:50:21.958Z,99.90
2022-08-08T17:52:50.727Z,99.90
2022-08-08T17:56:04.713Z,99.90
2022-08-08T17:58:05.622Z,99.90
2022-08-08T18:00:33.098Z,99.90
2022-08-08T18:03:08.807Z,99.90
2022-08-08T18:05:49.798Z,1.00
2022-08-08T18:08:24.915Z,1.00
2022-08-08T18:11:14.663Z,1.00
2022-08-08T18:13:47.278Z,1.00
2022-08-08T18:16:17.186Z,1.00
2022-08-08T18:18:56.398Z,1.00
2022-08-08T18:21:59.312Z,1.00
2022-08-08T18:24:21.454Z,1.00
2022-08-08T18:26:53.986Z,1.00
2022-08-08T18:29:33.509Z,9.70
2022-08-08T18:32:07.216Z,23.90
2022-08-08T18:34:37.834Z,39.80
2022-08-08T18:37:06.573Z,81.50
2022-08-08T18:39:37.433Z,99.90
2022-08-08T18:42:13.656Z,99.90
2022-08-08T18:44:42.038Z,99.90
2022-08-08T18:47:09.951Z,99.90
2022-08-08T18:49:57.533Z,99.90
2022-08-08T18:52:25.053Z,99.90
2022-08-08T18:54:59.273Z,99.90
2022-08-08T18:57:41.469Z,99.90
2022-08-08T19:00:20.077Z,99.90
2022-08-08T19:02:56.905Z,99.90
2022-08-08T19:05:34.145Z,99.90
2022-08-08T19:08:10.322Z,99.90
2022-08-08T19:10:54.010Z,99.90
2022-08-08T19:13:24.522Z,99.90
2022-08-08T19:15:55.930Z,99.90
2022-08-08T19:18:31.186Z,99.90
2022-08-08T19:21:29.988Z,99.90
2022-08-08T19:23:58.991Z,99.90
2022-08-08T19:26:30.482Z,99.90
2022-08-08T19:29:01.754Z,99.90
2022-08-08T19:31:31.878Z,99.90
2022-08-08T19:34:35.916Z,99.90
2022-08-08T19:36:55.303Z,99.90
2022-08-08T19:39:35.062Z,99.90
2022-08-08T19:42:07.091Z,99.90
2022-08-08T19:44:45.660Z,99.90
2022-08-08T19:47:15.926Z,1.00
2022-08-08T19:49:59.855Z,1.00
2022-08-08T19:52:34.667Z,1.00
2022-08-08T19:55:09.445Z,1.00
2022-08-08T19:57:45.650Z,1.00
2022-08-08T20:00:29.312Z,31.00
2022-08-08T20:03:15.202Z,61.50
2022-08-08T20:06:14.362Z,95.00
2022-08-08T20:08:37.375Z,99.90
2022-08-08T20:11:04.798Z,99.90
2022-08-08T20:14:32.070Z,99.90
2022-08-08T20:16:21.456Z,99.90
2022-08-08T20:18:57.108Z,99.90
2022-08-08T20:21:26.363Z,99.90
2022-08-08T20:23:59.521Z,99.90
2022-08-08T20:26:30.102Z,99.90
2022-08-08T20:29:02.817Z,99.90
2022-08-08T20:31:47.332Z,99.90
2022-08-08T20:34:30.046Z,99.90
2022-08-08T20:37:00.989Z,99.90
2022-08-08T20:39:39.173Z,99.90
2022-08-08T20:42:09.391Z,99.90
2022-08-08T20:44:37.901Z,99.90
2022-08-08T20:47:22.928Z,99.90
2022-08-08T20:49:55.937Z,60.10
2022-08-08T20:52:27.933Z,47.00
2022-08-08T20:54:56.906Z,16.30
2022-08-08T20:57:27.746Z,28.70
2022-08-08T20:59:56.033Z,12.10
2022-08-08T21:02:25.649Z,10.90
2022-08-08T21:05:00.478Z,3.10
2022-08-08T21:07:47.411Z,2.80
2022-08-08T21:10:20.745Z,12.30
2022-08-08T21:12:52.944Z,54.50
2022-08-08T21:16:05.999Z,94.10
2022-08-08T21:18:11.687Z,99.90
2022-08-08T21:20:42.001Z,99.90
2022-08-08T21:23:13.021Z,99.90
2022-08-08T21:25:48.975Z,99.90
2022-08-08T21:28:33.632Z,99.90
2022-08-08T21:31:21.723Z,99.90
2022-08-08T21:33:52.115Z,99.90
2022-08-08T21:36:28.743Z,99.90
2022-08-08T21:38:57.529Z,99.90
2022-08-08T21:41:28.929Z,99.90
2022-08-08T21:44:12.020Z,99.90
2022-08-08T21:48:07.691Z,99.90
2022-08-08T21:49:29.972Z,99.90
2022-08-08T21:54:18.433Z,99.90
2022-08-08T21:54:54.920Z,99.90
2022-08-08T21:57:42.633Z,99.90
2022-08-08T22:00:18.142Z,99.90
2022-08-08T22:02:53.822Z,99.90
2022-08-08T22:05:22.498Z,99.90
2022-08-08T22:07:50.057Z,99.90
2022-08-08T22:10:32.319Z,99.90
2022-08-08T22:13:16.974Z,99.90
2022-08-08T22:15:58.828Z,99.90
2022-08-08T22:18:28.625Z,90.90
2022-08-08T22:20:59.643Z,32.80
2022-08-08T22:23:41.040Z,8.60
2022-08-08T22:26:29.463Z,1.00
2022-08-08T22:29:14.853Z,1.00
2022-08-08T22:31:58.743Z,1.00
2022-08-08T22:34:32.044Z,1.00
2022-08-08T22:37:00.403Z,1.00
2022-08-08T22:39:45.804Z,1.00
2022-08-08T22:42:26.978Z,1.00
2022-08-08T22:44:58.994Z,1.00
2022-08-08T22:47:38.386Z,1.00
2022-08-08T22:50:09.944Z,1.00
2022-08-08T22:54:29.354Z,1.00
2022-08-08T22:55:58.194Z,1.00
2022-08-08T22:58:34.569Z,1.00
2022-08-08T23:02:03.037Z,1.00
2022-08-08T23:03:56.741Z,1.00
2022-08-08T23:06:25.851Z,1.00
2022-08-08T23:08:57.998Z,1.00
2022-08-08T23:12:28.396Z,1.00
2022-08-08T23:14:21.232Z,1.00
2022-08-08T23:16:57.499Z,1.00
2022-08-08T23:19:30.913Z,36.10
2022-08-08T23:22:04.681Z,4.90
2022-08-08T23:24:36.229Z,1.00
2022-08-08T23:27:06.045Z,27.50
2022-08-08T23:29:33.804Z,33.70
2022-08-08T23:32:04.684Z,46.00
2022-08-08T23:34:33.998Z,26.90
2022-08-08T23:37:02.871Z,56.10
2022-08-08T23:39:41.440Z,99.90
2022-08-08T23:42:17.086Z,99.90
2022-08-08T23:44:45.233Z,99.90
2022-08-08T23:49:05.326Z,99.90
2022-08-08T23:50:03.087Z,99.90
2022-08-08T23:52:34.308Z,99.90
2022-08-08T23:55:14.053Z,99.90
2022-08-08T23:57:52.907Z,99.90
